createdAt,value
2023-04-24T00:02:59.089Z,11.38
2023-04-24T00:07:12.783Z,16.13
2023-04-24T00:11:25.517Z,14.30
2023-04-24T00:15:38.087Z,10.43
2023-04-24T00:19:52.570Z,11.02
2023-04-24T00:24:05.386Z,13.13
2023-04-24T00:28:17.701Z,12.77
2023-04-24T00:32:30.108Z,10.85
2023-04-24T00:36:42.527Z,11.13
2023-04-24T00:40:55.540Z,9.55
2023-04-24T00:45:08.840Z,11.13
2023-04-24T00:49:21.988Z,10.35
2023-04-24T00:53:34.449Z,13.20
2023-04-24T00:57:47.017Z,8.60
2023-04-24T01:01:59.898Z,10.38
2023-04-24T01:06:12.548Z,9.43
2023-04-24T01:10:27.029Z,10.70
2023-04-24T01:14:39.658Z,9.23
2023-04-24T01:18:52.520Z,10.25
2023-04-24T01:23:05.000Z,8.15
2023-04-24T01:27:17.450Z,10.48
2023-04-24T01:31:32.200Z,9.70
2023-04-24T01:35:44.664Z,8.80
2023-04-24T01:39:57.032Z,8.68
2023-04-24T01:44:11.558Z,10.02
2023-04-24T01:48:24.014Z,9.00
2023-04-24T01:52:37.381Z,7.75
2023-04-24T01:56:50.164Z,9.98
2023-04-24T02:01:02.496Z,6.93
2023-04-24T02:05:14.995Z,9.80
2023-04-24T02:09:27.526Z,9.15
2023-04-24T02:13:39.909Z,10.50
2023-04-24T02:17:52.333Z,7.65
2023-04-24T02:22:04.769Z,8.02
2023-04-24T02:26:17.713Z,8.10
2023-04-24T02:30:30.204Z,7.90
2023-04-24T02:34:42.633Z,8.70
2023-04-24T02:38:55.031Z,9.73
2023-04-24T02:43:07.250Z,8.85
2023-04-24T02:47:19.738Z,8.48
2023-04-24T02:51:32.368Z,8.80
2023-04-24T02:55:44.910Z,10.77
2023-04-24T02:59:57.327Z,8.32
2023-04-24T03:04:09.744Z,14.25
2023-04-24T03:08:22.357Z,8.13
2023-04-24T03:12:34.718Z,9.23
2023-04-24T03:16:47.108Z,7.72
2023-04-24T03:20:59.660Z,7.15
2023-04-24T03:25:12.327Z,7.30
2023-04-24T03:29:24.867Z,9.32
2023-04-24T03:33:37.365Z,8.35
2023-04-24T03:37:49.885Z,7.20
2023-04-24T03:42:20.665Z,7.32
2023-04-24T03:46:39.933Z,8.60
2023-04-24T03:50:52.809Z,9.80
2023-04-24T03:55:07.712Z,6.57
2023-04-24T03:59:26.414Z,7.68
2023-04-24T04:03:52.519Z,9.10
2023-04-24T04:08:08.591Z,8.73
2023-04-24T04:12:21.074Z,8.02
2023-04-24T04:16:34.148Z,8.32
2023-04-24T04:20:48.857Z,12.23
2023-04-24T04:25:02.168Z,7.15
2023-04-24T04:29:18.437Z,7.93
2023-04-24T04:33:33.094Z,8.32
2023-04-24T04:37:45.950Z,9.85
2023-04-24T04:42:14.911Z,9.85
2023-04-24T04:46:33.768Z,6.32
2023-04-24T04:50:56.920Z,7.95
2023-04-24T04:55:10.435Z,8.23
2023-04-24T04:59:43.572Z,8.65
2023-04-24T05:04:02.634Z,8.57
2023-04-24T05:12:33.818Z,10.20
2023-04-24T05:16:48.505Z,8.32
2023-04-24T05:21:02.797Z,9.57
2023-04-24T05:25:15.411Z,6.60
2023-04-24T05:29:48.014Z,9.40
2023-04-24T05:34:00.658Z,12.32
2023-04-24T05:38:14.187Z,8.02
2023-04-24T05:42:26.594Z,11.45
2023-04-24T05:46:39.212Z,10.73
2023-04-24T05:50:52.101Z,8.55
2023-04-24T05:55:04.839Z,6.90
2023-04-24T05:59:20.278Z,9.13
2023-04-24T06:03:34.286Z,8.82
2023-04-24T06:07:50.033Z,6.30
2023-04-24T06:12:03.808Z,9.93
2023-04-24T06:16:31.831Z,10.23
2023-04-24T06:20:49.857Z,8.27
2023-04-24T06:25:02.717Z,8.27
2023-04-24T06:29:15.172Z,11.73
2023-04-24T06:33:27.799Z,7.43
2023-04-24T06:37:41.716Z,10.68
2023-04-24T06:41:54.088Z,6.32
2023-04-24T06:46:06.676Z,10.40
2023-04-24T06:50:19.312Z,9.48
2023-04-24T06:54:33.194Z,8.02
2023-04-24T06:58:46.511Z,6.70
2023-04-24T07:02:58.943Z,11.18
2023-04-24T07:07:15.395Z,5.35
2023-04-24T07:11:30.479Z,7.07
2023-04-24T07:15:43.058Z,7.18
2023-04-24T07:19:55.466Z,6.85
2023-04-24T07:24:12.022Z,5.75
2023-04-24T07:28:24.539Z,9.65
2023-04-24T07:32:37.027Z,8.32
2023-04-24T07:36:49.583Z,12.45
2023-04-24T07:41:01.944Z,9.13
2023-04-24T07:45:14.308Z,10.35
2023-04-24T07:49:26.852Z,11.10
2023-04-24T07:53:39.213Z,8.48
2023-04-24T07:57:52.403Z,8.90
2023-04-24T08:02:04.909Z,9.75
2023-04-24T08:06:17.387Z,9.88
2023-04-24T08:10:29.807Z,8.25
2023-04-24T08:14:42.652Z,11.63
2023-04-24T08:18:55.339Z,5.78
2023-04-24T08:23:07.825Z,8.73
2023-04-24T08:27:20.255Z,5.38
2023-04-24T08:31:32.679Z,7.82
2023-04-24T08:35:45.118Z,6.22
2023-04-24T08:39:57.619Z,8.77
2023-04-24T08:44:11.393Z,4.80
2023-04-24T08:48:30.980Z,6.45
2023-04-24T08:52:44.510Z,6.00
2023-04-24T08:57:02.622Z,6.70
2023-04-24T09:01:15.636Z,7.97
2023-04-24T09:05:29.423Z,4.60
2023-04-24T09:09:43.426Z,10.25
2023-04-24T09:13:57.434Z,5.30
2023-04-24T09:18:09.904Z,4.18
2023-04-24T09:22:23.024Z,3.58
2023-04-24T09:26:38.487Z,6.03
2023-04-24T09:31:19.416Z,5.55
2023-04-24T09:35:33.720Z,3.92
2023-04-24T09:39:46.173Z,5.28
2023-04-24T09:44:11.924Z,7.30
2023-04-24T09:48:38.404Z,8.38
2023-04-24T09:53:03.036Z,4.78
2023-04-24T09:57:16.275Z,3.83
2023-04-24T10:01:33.384Z,6.00
2023-04-24T10:05:48.662Z,3.53
2023-04-24T10:10:01.871Z,3.80
2023-04-24T10:14:25.699Z,5.15
2023-04-24T10:18:38.875Z,6.18
2023-04-24T10:22:53.270Z,6.55
2023-04-24T10:27:07.304Z,12.00
2023-04-24T10:31:20.866Z,4.10
2023-04-24T10:35:36.411Z,4.70
2023-04-24T10:39:52.352Z,7.82
2023-04-24T10:44:17.019Z,2.80
2023-04-24T10:48:31.448Z,10.93
2023-04-24T10:52:52.550Z,3.30
2023-04-24T10:57:23.638Z,9.82
2023-04-24T11:01:39.937Z,16.63
2023-04-24T11:05:54.587Z,12.45
2023-04-24T11:10:07.669Z,4.82
2023-04-24T11:14:20.443Z,6.68
2023-04-24T11:18:40.530Z,4.43
2023-04-24T11:22:56.048Z,7.32
2023-04-24T11:27:15.559Z,7.63
2023-04-24T11:35:53.719Z,12.73
2023-04-24T11:40:07.798Z,10.20
2023-04-24T11:44:22.312Z,10.38
2023-04-24T11:48:41.237Z,5.97
2023-04-24T11:52:53.825Z,8.18
2023-04-24T11:57:07.997Z,10.68
2023-04-24T12:01:20.545Z,8.00
2023-04-24T12:05:33.465Z,14.45
2023-04-24T12:09:48.155Z,8.35
2023-04-24T12:14:11.891Z,7.38
2023-04-24T12:18:25.278Z,9.10
2023-04-24T12:22:57.564Z,13.18
2023-04-24T12:27:21.288Z,15.93
2023-04-24T12:31:34.135Z,16.38
2023-04-24T12:35:47.036Z,20.40
2023-04-24T12:40:01.827Z,14.30
2023-04-24T12:44:14.451Z,17.13
2023-04-24T12:48:28.213Z,12.63
2023-04-24T12:52:41.561Z,15.43
2023-04-24T12:56:56.833Z,13.00
2023-04-24T13:01:09.344Z,20.48
2023-04-24T13:05:23.541Z,15.73
2023-04-24T13:09:37.374Z,10.88
2023-04-24T13:13:49.802Z,11.93
2023-04-24T13:18:02.431Z,12.32
2023-04-24T13:22:15.134Z,13.85
2023-04-24T13:26:27.446Z,10.88
2023-04-24T13:30:40.016Z,14.52
2023-04-24T13:34:52.512Z,8.13
2023-04-24T13:39:06.589Z,10.80
2023-04-24T13:43:18.999Z,9.65
2023-04-24T13:47:31.408Z,12.07
2023-04-24T13:51:44.456Z,12.45
2023-04-24T13:55:57.294Z,16.55
2023-04-24T14:00:11.898Z,15.27
2023-04-24T14:04:24.597Z,17.88
2023-04-24T14:08:37.331Z,12.63
2023-04-24T14:12:49.767Z,10.20
2023-04-24T14:17:02.152Z,8.48
2023-04-24T14:21:14.648Z,15.52
2023-04-24T14:25:27.657Z,8.75
2023-04-24T14:29:40.080Z,9.07
2023-04-24T14:33:52.603Z,6.93
2023-04-24T14:38:05.034Z,14.85
2023-04-24T14:42:18.498Z,8.18
2023-04-24T14:46:34.395Z,8.68
2023-04-24T14:50:47.174Z,9.30
2023-04-24T14:54:59.658Z,4.47
2023-04-24T14:59:12.413Z,6.63
2023-04-24T15:03:25.239Z,5.85
2023-04-24T15:07:38.753Z,5.65
2023-04-24T15:11:52.229Z,8.05
2023-04-24T15:16:04.752Z,9.93
2023-04-24T15:20:17.550Z,18.65
2023-04-24T15:24:30.102Z,8.90
2023-04-24T15:28:42.673Z,9.00
2023-04-24T15:32:55.403Z,9.60
2023-04-24T15:37:07.937Z,8.20
2023-04-24T15:41:20.333Z,8.80
2023-04-24T15:45:33.927Z,6.18
2023-04-24T15:49:46.497Z,9.77
2023-04-24T15:53:58.938Z,7.93
2023-04-24T15:58:11.650Z,8.02
2023-04-24T16:02:24.482Z,8.35
2023-04-24T16:06:37.126Z,12.07
2023-04-24T16:10:49.698Z,14.13
2023-04-24T16:15:02.263Z,12.32
2023-04-24T16:19:14.654Z,12.25
2023-04-24T16:23:27.099Z,11.50
2023-04-24T16:27:39.590Z,9.75
2023-04-24T16:31:52.641Z,9.77
2023-04-24T16:36:07.361Z,11.75
2023-04-24T16:40:21.044Z,13.18
2023-04-24T16:44:33.491Z,11.32
2023-04-24T16:48:46.251Z,8.90
2023-04-24T16:52:58.784Z,9.40
2023-04-24T16:57:11.318Z,11.82
2023-04-24T17:01:24.513Z,15.27
2023-04-24T17:05:37.071Z,15.40
2023-04-24T17:09:49.569Z,16.27
2023-04-24T17:14:01.897Z,16.25
2023-04-24T17:18:14.432Z,13.68
2023-04-24T17:22:27.036Z,18.65
2023-04-24T17:26:39.330Z,14.57
2023-04-24T17:30:51.800Z,16.08
2023-04-24T17:35:04.475Z,27.92
2023-04-24T17:39:17.395Z,23.00
2023-04-24T17:43:29.860Z,20.02
2023-04-24T17:47:42.752Z,19.67
2023-04-24T17:51:55.506Z,18.80
2023-04-24T17:56:08.420Z,22.48
2023-04-24T18:00:21.199Z,17.17
2023-04-24T18:04:33.885Z,21.25
2023-04-24T18:08:46.785Z,19.92
2023-04-24T18:13:00.017Z,16.75
2023-04-24T18:17:12.603Z,18.58
2023-04-24T18:21:25.414Z,24.88
2023-04-24T18:25:38.767Z,20.17
2023-04-24T18:29:54.271Z,26.90
2023-04-24T18:34:06.612Z,19.83
2023-04-24T18:38:19.066Z,19.45
2023-04-24T18:42:31.536Z,24.92
2023-04-24T18:46:43.954Z,21.60
2023-04-24T18:50:56.336Z,19.90
2023-04-24T18:55:10.088Z,23.10
2023-04-24T18:59:22.704Z,21.13
2023-04-24T19:03:35.241Z,19.08
2023-04-24T19:07:47.790Z,22.00
2023-04-24T19:12:01.999Z,22.20
2023-04-24T19:16:14.527Z,22.23
2023-04-24T19:20:27.435Z,18.10
2023-04-24T19:24:39.867Z,20.15
2023-04-24T19:28:53.928Z,19.75
2023-04-24T19:33:06.703Z,20.23
2023-04-24T19:37:19.185Z,17.77
2023-04-24T19:41:31.578Z,44.63
2023-04-24T19:45:44.966Z,27.33
2023-04-24T19:49:57.397Z,23.95
2023-04-24T19:54:09.768Z,21.55
2023-04-24T19:58:22.156Z,23.67
2023-04-24T20:02:36.933Z,27.58
2023-04-24T20:06:50.097Z,24.13
2023-04-24T20:11:02.533Z,22.58
2023-04-24T20:15:15.045Z,21.67
2023-04-24T20:19:27.729Z,22.48
2023-04-24T20:23:40.778Z,28.77
2023-04-24T20:27:53.812Z,24.58
2023-04-24T20:32:07.256Z,27.63
2023-04-24T20:36:19.682Z,28.27
2023-04-24T20:40:32.071Z,32.40
2023-04-24T20:44:45.838Z,24.33
2023-04-24T20:48:58.298Z,12.98
2023-04-24T20:53:10.945Z,12.23
2023-04-24T20:57:23.423Z,10.15
2023-04-24T21:01:35.855Z,8.68
2023-04-24T21:05:48.302Z,8.25
2023-04-24T21:10:01.679Z,7.38
2023-04-24T21:14:14.120Z,12.05
2023-04-24T21:18:26.743Z,9.38
2023-04-24T21:22:39.100Z,10.18
2023-04-24T21:26:51.789Z,10.23
2023-04-24T21:31:04.246Z,13.38
2023-04-24T21:35:16.680Z,15.25
2023-04-24T21:39:29.076Z,11.77
2023-04-24T21:43:44.476Z,10.80
2023-04-24T21:47:59.927Z,11.38
2023-04-24T21:52:13.997Z,9.93
2023-04-24T21:56:28.692Z,12.70
2023-04-24T22:00:41.138Z,11.05
2023-04-24T22:04:56.679Z,11.00
2023-04-24T22:09:09.158Z,10.18
2023-04-24T22:13:21.535Z,12.20
2023-04-24T22:17:34.400Z,10.10
2023-04-24T22:21:46.845Z,8.05
2023-04-24T22:25:59.100Z,18.10
2023-04-24T22:30:11.799Z,13.98
2023-04-24T22:34:24.125Z,13.90
2023-04-24T22:38:36.589Z,10.23
2023-04-24T22:42:48.904Z,7.05
2023-04-24T22:47:01.296Z,7.13
2023-04-24T22:51:13.630Z,5.85
2023-04-24T22:55:26.046Z,7.45
2023-04-24T22:59:38.711Z,4.60
2023-04-24T23:03:51.824Z,5.43
2023-04-24T23:08:04.658Z,6.47
2023-04-24T23:12:16.887Z,5.35
2023-04-24T23:16:31.275Z,5.45
2023-04-24T23:20:43.698Z,4.20
2023-04-24T23:24:56.300Z,5.65
2023-04-24T23:29:08.589Z,4.57
2023-04-24T23:33:21.014Z,3.75
2023-04-24T23:37:33.424Z,6.03
2023-04-24T23:41:46.533Z,6.57
2023-04-24T23:45:58.914Z,4.72
2023-04-24T23:50:11.875Z,4.03
2023-04-24T23:54:24.323Z,6.75
2023-04-24T23:58:37.176Z,3.40
